Time;durP1;ratioP1;P1;durP2;ratioP2;P2;SDS_P1;SDS_P2;PMS_P1;PMS_P2;Temp;Humidity;BMP_temperature;BMP_pressure;BME280_temperature;BME280_humidity;BME280_pressure;Samples;Min_cycle;Max_cycle;Signal;HPM_P1;HPM_P2
2021/12/23 00:00:13;;;;;;;;;41.75;35.75;;;;;3.66;54.08;101221.16;4977292;28;45431;-91
2021/12/23 00:02:39;;;;;;;;;41.75;36.00;;;;;4.17;54.01;101302.53;4993893;28;45183;-92
2021/12/23 00:05:07;;;;;;;;;42.50;36.50;;;;;4.46;54.22;101351.53;4962158;28;46382;-92
2021/12/23 00:07:32;;;;;;;;;46.25;37.50;;;;;4.18;54.31;101318.31;4950547;28;45688;-91
2021/12/23 00:10:06;;;;;;;;;54.75;41.25;;;;;3.95;54.37;101272.78;4961369;28;45374;-92
2021/12/23 00:12:36;;;;;;;;;43.00;35.25;;;;;4.10;54.33;101290.28;4968852;28;45363;-94
2021/12/23 00:15:04;;;;;;;;;51.00;40.75;;;;;4.29;54.05;101320.00;4996009;27;47000;-89
2021/12/23 00:25:23;;;;;;;;;41.25;36.50;;;;;4.51;54.67;101379.63;4957158;28;45776;-90
2021/12/23 00:27:48;;;;;;;;;53.00;40.50;;;;;4.14;54.72;101319.22;4953713;28;45671;-91
2021/12/23 00:30:14;;;;;;;;;43.25;37.50;;;;;3.88;54.55;101266.69;4977676;27;45686;-88
2021/12/23 00:32:39;;;;;;;;;46.25;37.00;;;;;4.04;54.89;101277.13;4976594;28;45261;-86
2021/12/23 00:35:06;;;;;;;;;44.50;37.50;;;;;4.61;54.82;101362.84;4968463;28;46319;-85
2021/12/23 00:37:37;;;;;;;;;42.00;37.25;;;;;3.74;55.16;101223.75;4967132;28;45916;-85
2021/12/23 00:40:05;;;;;;;;;40.00;37.00;;;;;4.61;54.85;101362.84;4976864;28;45358;-86
2021/12/23 00:42:34;;;;;;;;;44.50;37.75;;;;;4.56;55.45;101372.53;4968952;28;45794;-86
2021/12/23 00:44:59;;;;;;;;;43.50;36.00;;;;;4.27;55.50;101333.22;4991159;28;45448;-86
2021/12/23 00:47:24;;;;;;;;;47.75;35.00;;;;;4.05;55.66;101294.69;4974020;28;45540;-86
2021/12/23 00:49:50;;;;;;;;;43.25;35.00;;;;;4.15;55.62;101307.81;4990077;28;45918;-86
2021/12/23 00:52:18;;;;;;;;;42.50;36.00;;;;;3.94;55.58;101271.94;4978939;28;45330;-86
2021/12/23 00:54:44;;;;;;;;;39.50;34.75;;;;;4.01;55.72;101293.84;4978657;28;47194;-87
2021/12/23 00:57:09;;;;;;;;;46.75;37.25;;;;;3.91;55.80;101266.69;4990288;28;45306;-86
2021/12/23 00:59:37;;;;;;;;;51.00;38.00;;;;;4.37;55.79;101344.56;4976690;28;45516;-86
2021/12/23 01:02:06;;;;;;;;;43.50;36.50;;;;;3.89;56.41;101267.59;4986673;28;45283;-86
2021/12/23 01:04:32;;;;;;;;;46.50;37.50;;;;;3.79;56.38;101258.84;4976065;28;46349;-86
2021/12/23 01:06:58;;;;;;;;;46.00;37.50;;;;;3.72;56.09;101242.22;4976372;28;45761;-86
2021/12/23 01:09:23;;;;;;;;;45.25;38.00;;;;;4.15;56.50;101310.44;4990379;28;45729;-86
2021/12/23 01:11:50;;;;;;;;;50.25;37.50;;;;;3.98;56.61;101273.66;4976112;28;45310;-86
2021/12/23 01:19:25;;;;;;;;;50.50;37.25;;;;;4.37;56.08;101331.34;4974457;28;45393;-85
2021/12/23 01:21:51;;;;;;;;;45.75;38.00;;;;;4.03;56.44;101249.88;4965083;28;45379;-86
2021/12/23 01:24:17;;;;;;;;;50.75;38.50;;;;;4.52;55.83;101333.88;4946941;28;47403;-86
2021/12/23 01:26:43;;;;;;;;;40.75;34.75;;;;;4.02;55.94;101232.28;4947280;28;45358;-86
2021/12/23 01:29:08;;;;;;;;;46.75;38.25;;;;;4.06;56.22;101257.75;4957096;28;45363;-86
2021/12/23 01:31:37;;;;;;;;;40.00;36.00;;;;;4.19;56.64;101255.88;4972651;28;45330;-86
2021/12/23 01:34:03;;;;;;;;;49.00;41.00;;;;;4.11;56.19;101239.25;4970526;28;45396;-86
2021/12/23 01:36:28;;;;;;;;;55.75;42.50;;;;;4.13;56.11;101234.84;4982975;27;45242;-86
2021/12/23 01:38:55;;;;;;;;;43.25;37.75;;;;;4.36;56.29;101279.50;4970993;28;45286;-86
2021/12/23 01:41:21;;;;;;;;;40.75;35.00;;;;;4.64;56.43;101317.91;4983456;28;45414;-87
2021/12/23 01:43:47;;;;;;;;;40.50;33.75;;;;;4.23;56.48;101239.13;4964698;28;46187;-86
2021/12/23 01:46:12;;;;;;;;;36.50;34.50;;;;;4.62;56.11;101313.53;4953248;28;45335;-86
2021/12/23 01:48:38;;;;;;;;;44.00;37.75;;;;;4.24;56.56;101240.91;4958109;28;45545;-86
2021/12/23 01:51:03;;;;;;;;;55.00;40.50;;;;;4.20;56.39;101224.22;4971040;28;45579;-86
2021/12/23 01:53:29;;;;;;;;;45.00;37.75;;;;;4.00;55.97;101182.22;4974528;28;46108;-86
2021/12/23 01:55:54;;;;;;;;;48.00;38.00;;;;;4.09;56.36;101193.56;4974815;28;45459;-86
2021/12/23 01:58:20;;;;;;;;;41.50;35.00;;;;;4.72;56.21;101295.84;4958141;28;45448;-86
2021/12/23 02:00:50;;;;;;;;;43.50;37.50;;;;;4.73;56.61;101294.94;4973299;28;45436;-86
2021/12/23 02:03:16;;;;;;;;;51.00;40.00;;;;;4.72;55.72;101291.41;4957920;28;48306;-86
2021/12/23 02:05:41;;;;;;;;;41.75;34.50;;;;;4.74;56.34;101280.84;4984382;28;45905;-86
2021/12/23 02:08:07;;;;;;;;;44.25;38.00;;;;;4.79;56.30;101290.47;4994953;27;45508;-86
2021/12/23 02:10:33;;;;;;;;;39.00;33.25;;;;;4.66;56.37;101270.38;4982701;28;45552;-86
2021/12/23 02:12:59;;;;;;;;;47.75;38.00;;;;;4.48;55.72;101231.84;4974108;28;47137;-86
2021/12/23 02:15:25;;;;;;;;;43.00;36.75;;;;;4.90;55.87;101292.13;4982631;28;45588;-86
2021/12/23 02:17:51;;;;;;;;;43.50;37.00;;;;;4.89;56.01;101290.34;4975445;28;45775;-86
2021/12/23 02:20:23;;;;;;;;;42.00;37.25;;;;;4.79;56.47;101269.34;4979332;28;45704;-86
2021/12/23 02:22:49;;;;;;;;;44.50;33.75;;;;;4.88;55.87;101288.63;4973775;28;47388;-86
2021/12/23 02:25:16;;;;;;;;;43.25;36.50;;;;;4.90;56.20;101290.34;4974508;28;45445;-86
2021/12/23 02:27:42;;;;;;;;;44.25;36.75;;;;;4.86;56.14;101281.56;4975260;28;45376;-86
2021/12/23 02:30:13;;;;;;;;;39.25;36.75;;;;;4.91;56.49;101280.66;4957839;28;45501;-86
2021/12/23 02:32:39;;;;;;;;;41.25;35.50;;;;;4.98;56.28;101280.56;4984508;28;47405;-86
2021/12/23 02:35:09;;;;;;;;;40.00;36.25;;;;;5.04;55.79;101275.22;4963036;28;45839;-86
2021/12/23 02:37:34;;;;;;;;;40.00;35.00;;;;;5.07;55.85;101269.88;4975174;28;45301;-86
2021/12/23 02:40:00;;;;;;;;;37.25;34.75;;;;;4.56;55.73;101178.97;4973758;28;45651;-86
2021/12/23 02:42:26;;;;;;;;;38.00;34.00;;;;;4.89;55.55;101230.47;4975226;28;45427;-86
2021/12/23 02:44:54;;;;;;;;;44.25;36.50;;;;;5.15;55.75;101272.44;4974545;28;45529;-86
2021/12/23 02:47:20;;;;;;;;;52.25;39.00;;;;;5.19;55.83;101271.50;4974901;28;45531;-86
2021/12/23 02:49:46;;;;;;;;;51.00;41.25;;;;;5.08;55.56;101237.28;4975297;28;45407;-85
2021/12/23 02:52:11;;;;;;;;;56.00;41.00;;;;;4.86;55.28;101196.19;4974933;28;45531;-86
2021/12/23 02:54:36;;;;;;;;;33.75;28.25;;;;;5.24;55.21;101260.84;4981510;28;45488;-86
2021/12/23 02:57:02;;;;;;;;;43.50;38.25;;;;;4.57;55.62;101146.41;4975084;28;45438;-86
2021/12/23 02:59:28;;;;;;;;;54.50;41.00;;;;;4.61;55.24;101162.19;4973613;28;45428;-86
2021/12/23 03:01:53;;;;;;;;;41.50;38.25;;;;;4.87;55.45;101208.53;4972822;28;48008;-86
2021/12/23 03:04:19;;;;;;;;;47.25;40.00;;;;;4.75;55.55;101192.81;4973138;28;45768;-86
2021/12/23 03:06:44;;;;;;;;;51.50;39.50;;;;;5.19;55.56;101263.56;4974483;28;45414;-85
2021/12/23 03:09:10;;;;;;;;;48.25;38.75;;;;;5.16;55.57;101249.53;4983817;28;45437;-86
2021/12/23 03:11:35;;;;;;;;;46.75;37.25;;;;;5.18;55.65;101251.25;4974438;28;45349;-86
2021/12/23 03:14:01;;;;;;;;;43.75;37.25;;;;;4.85;55.68;101191.81;4964127;28;45573;-86
2021/12/23 03:16:33;;;;;;;;;48.75;38.00;;;;;5.16;55.91;101244.25;4994499;27;45400;-86
2021/12/23 03:18:58;;;;;;;;;45.00;37.25;;;;;4.65;55.34;101147.16;4983260;28;45390;-86
2021/12/23 03:21:24;;;;;;;;;45.50;39.00;;;;;4.57;55.40;101130.56;4977180;28;47151;-86
2021/12/23 03:23:51;;;;;;;;;51.50;37.00;;;;;5.20;55.54;101238.91;4974264;28;45398;-85
2021/12/23 03:26:17;;;;;;;;;43.25;36.75;;;;;4.89;55.56;101179.44;4974617;28;45647;-85
2021/12/23 03:28:42;;;;;;;;;49.25;37.50;;;;;4.72;55.25;101147.97;4974533;28;45407;-86
2021/12/23 03:31:07;;;;;;;;;42.75;37.75;;;;;4.98;55.31;101179.31;4974340;28;46535;-86
2021/12/23 03:33:33;;;;;;;;;46.25;39.25;;;;;5.30;55.36;101218.50;4972395;28;45436;-86
2021/12/23 03:36:00;;;;;;;;;37.00;32.50;;;;;5.28;55.67;101226.44;4980000;28;45524;-87
2021/12/23 03:38:25;;;;;;;;;43.75;37.50;;;;;4.94;54.96;101162.66;4981104;28;45638;-86
2021/12/23 03:40:51;;;;;;;;;43.75;37.00;;;;;5.21;55.45;101200.13;4973855;28;45436;-86
2021/12/23 03:43:17;;;;;;;;;38.25;36.75;;;;;5.21;54.88;101198.34;4973537;28;45565;-85
2021/12/23 03:45:45;;;;;;;;;49.00;40.00;;;;;5.18;55.34;101208.97;4983000;28;45517;-86
2021/12/23 03:48:13;;;;;;;;;43.50;36.25;;;;;5.13;55.42;101200.25;4974065;28;45644;-86
2021/12/23 03:50:38;;;;;;;;;43.75;37.50;;;;;4.82;55.79;101144.31;4969303;28;47304;-86
2021/12/23 03:53:04;;;;;;;;;44.25;34.25;;;;;4.23;55.60;101039.50;4953345;28;45699;-86
2021/12/23 03:55:29;;;;;;;;;48.00;36.75;;;;;5.17;55.57;101204.56;4985324;28;46639;-86
2021/12/23 03:57:55;;;;;;;;;42.00;38.00;;;;;5.08;55.45;101196.81;4993787;27;45537;-86
2021/12/23 04:00:22;;;;;;;;;52.25;37.75;;;;;4.56;55.70;101099.78;5008359;28;47167;-86
2021/12/23 04:02:48;;;;;;;;;47.25;37.25;;;;;4.55;55.85;101095.41;4988950;28;45567;-87
2021/12/23 04:05:15;;;;;;;;;44.25;35.25;;;;;4.52;55.81;101092.78;4955514;28;45595;-86
2021/12/23 04:07:41;;;;;;;;;52.75;39.00;;;;;4.68;55.61;101114.56;4968039;28;45595;-87
2021/12/23 04:10:08;;;;;;;;;41.75;36.25;;;;;5.12;56.00;101179.13;4971632;28;46719;-87
2021/12/23 04:12:34;;;;;;;;;40.00;36.50;;;;;4.59;55.62;101094.47;4974570;28;45309;-86
2021/12/23 04:14:59;;;;;;;;;46.25;38.00;;;;;4.75;55.75;101116.25;4974741;28;45488;-86
2021/12/23 04:17:25;;;;;;;;;44.50;38.00;;;;;4.75;55.90;101103.94;4976078;28;45303;-86
2021/12/23 04:19:50;;;;;;;;;47.25;36.25;;;;;4.97;55.50;101135.31;4975742;28;47446;-87
2021/12/23 04:22:17;;;;;;;;;44.75;34.75;;;;;4.91;55.73;101114.25;4976038;28;45385;-86
2021/12/23 04:24:42;;;;;;;;;41.50;36.00;;;;;4.97;55.60;101125.63;4975710;28;45543;-86
2021/12/23 04:27:08;;;;;;;;;49.25;35.50;;;;;5.22;55.91;101163.13;4976613;28;45426;-86
2021/12/23 04:29:34;;;;;;;;;46.25;39.25;;;;;5.24;55.59;101160.44;4976635;28;46439;-86
2021/12/23 04:32:00;;;;;;;;;48.00;40.25;;;;;4.71;55.76;101067.91;4976951;28;45864;-86
2021/12/23 04:34:26;;;;;;;;;45.25;38.00;;;;;5.27;55.98;101150.72;4975943;28;45365;-86
2021/12/23 04:36:52;;;;;;;;;46.00;39.00;;;;;5.34;55.88;101158.53;4979805;28;45475;-86
2021/12/23 04:39:17;;;;;;;;;43.75;36.00;;;;;5.04;55.49;101094.72;4989340;27;46948;-85
2021/12/23 04:41:43;;;;;;;;;47.50;38.75;;;;;5.02;55.79;101093.84;4996070;28;45346;-86
2021/12/23 04:44:08;;;;;;;;;45.25;37.75;;;;;4.92;55.49;101074.63;4994738;28;45867;-86
2021/12/23 04:46:33;;;;;;;;;40.00;34.75;;;;;4.89;55.36;101064.09;4982868;28;45771;-86
2021/12/23 04:48:59;;;;;;;;;38.75;34.00;;;;;5.01;55.24;101070.94;4972162;28;47083;-86
2021/12/23 04:51:24;;;;;;;;;43.00;37.00;;;;;5.22;55.30;101112.91;4961936;28;45318;-86
2021/12/23 04:53:50;;;;;;;;;54.00;38.00;;;;;5.32;54.98;101116.28;4995261;27;45460;-86
2021/12/23 04:56:16;;;;;;;;;41.00;37.25;;;;;5.53;55.11;101144.13;4975270;28;45918;-86
2021/12/23 04:58:43;;;;;;;;;47.00;39.25;;;;;5.53;55.12;101151.19;4976341;28;46681;-86
2021/12/23 05:01:19;;;;;;;;;40.75;36.00;;;;;5.54;55.01;101145.88;4981723;28;45271;-86
2021/12/23 05:03:44;;;;;;;;;51.00;38.00;;;;;5.33;55.19;101112.72;4995059;27;45399;-86
2021/12/23 05:06:09;;;;;;;;;43.50;35.25;;;;;5.43;54.94;101124.91;4991795;27;45266;-86
2021/12/23 05:08:35;;;;;;;;;42.25;35.75;;;;;5.58;55.46;101142.28;4990866;27;47069;-86
2021/12/23 05:11:00;;;;;;;;;43.50;38.25;;;;;5.19;54.94;101067.16;4983530;27;45334;-86
2021/12/23 05:13:25;;;;;;;;;46.00;37.00;;;;;5.37;55.18;101105.63;4974240;28;45677;-86
2021/12/23 05:15:51;;;;;;;;;43.75;36.25;;;;;5.11;54.89;101042.66;4963715;28;45592;-86
2021/12/23 05:18:16;;;;;;;;;44.50;35.75;;;;;5.44;55.27;101094.94;4971958;28;45345;-86
2021/12/23 05:20:41;;;;;;;;;46.00;37.00;;;;;5.22;55.50;101056.53;4994839;27;45504;-86
2021/12/23 05:23:07;;;;;;;;;47.50;38.25;;;;;4.32;55.73;100911.84;4968550;27;45597;-86
2021/12/23 05:25:32;;;;;;;;;45.50;36.50;;;;;4.51;55.38;100937.97;4968862;28;45592;-86
2021/12/23 05:28:00;;;;;;;;;46.50;35.50;;;;;4.79;55.52;100989.44;4982114;28;46508;-85
2021/12/23 05:30:26;;;;;;;;;42.00;36.25;;;;;4.85;55.70;101002.53;4975575;28;45405;-85
2021/12/23 05:32:52;;;;;;;;;43.25;37.50;;;;;5.47;55.53;101102.78;4982186;28;45405;-86
2021/12/23 05:35:18;;;;;;;;;41.00;35.25;;;;;4.82;55.45;100977.94;4971739;28;45694;-86
2021/12/23 05:37:45;;;;;;;;;43.25;37.00;;;;;5.12;55.40;101028.53;4974361;28;45680;-86
2021/12/23 05:40:13;;;;;;;;;40.75;36.25;;;;;5.54;55.72;101094.78;4957459;28;45895;-86
2021/12/23 05:42:39;;;;;;;;;49.00;38.00;;;;;5.44;55.63;101079.06;4975458;28;45711;-85
2021/12/23 05:45:05;;;;;;;;;42.75;34.25;;;;;5.50;55.50;101097.47;4974720;28;45571;-86
2021/12/23 05:47:30;;;;;;;;;42.75;36.25;;;;;5.14;55.69;101016.16;4958016;28;48514;-85
2021/12/23 05:49:55;;;;;;;;;49.00;39.25;;;;;5.20;55.86;101035.44;4975528;28;45353;-85
2021/12/23 05:52:21;;;;;;;;;49.00;38.25;;;;;4.94;55.73;100980.41;4977937;28;45333;-86
2021/12/23 05:54:46;;;;;;;;;38.50;35.75;;;;;5.55;55.71;101073.59;4980692;28;45412;-86
2021/12/23 05:57:12;;;;;;;;;51.50;40.25;;;;;5.68;55.76;101090.97;4971604;28;46403;-85
2021/12/23 05:59:37;;;;;;;;;42.50;34.75;;;;;5.35;55.55;101034.28;4973774;28;45966;-89
2021/12/23 06:02:05;;;;;;;;;36.75;33.00;;;;;5.72;55.51;101087.38;4975721;28;45463;-90
2021/12/23 06:04:32;;;;;;;;;50.50;40.25;;;;;5.76;55.48;101084.66;4975078;28;45488;-87
2021/12/23 06:06:57;;;;;;;;;53.50;38.75;;;;;5.81;55.75;101098.72;4973471;28;47703;-87
2021/12/23 06:09:23;;;;;;;;;36.75;32.75;;;;;5.83;55.45;101089.84;4970747;28;45230;-87
2021/12/23 06:11:48;;;;;;;;;42.75;36.25;;;;;5.39;55.20;101021.91;4965284;28;45636;-89
2021/12/23 06:14:14;;;;;;;;;47.00;37.75;;;;;5.82;55.75;101089.84;4970916;28;45661;-87
2021/12/23 06:16:39;;;;;;;;;38.50;34.25;;;;;5.79;55.28;101084.63;4968652;28;45513;-86
2021/12/23 06:19:04;;;;;;;;;42.75;36.75;;;;;5.44;55.59;101027.97;4949587;28;45393;-84
2021/12/23 06:21:31;;;;;;;;;41.25;35.25;;;;;5.33;55.28;101012.28;4963204;28;45259;-87
2021/12/23 06:23:57;;;;;;;;;48.50;35.50;;;;;5.55;55.39;101052.47;4963684;28;46132;-86
2021/12/23 06:26:23;;;;;;;;;42.25;35.50;;;;;5.77;55.30;101092.59;5000229;28;45527;-85
2021/12/23 06:28:49;;;;;;;;;48.00;39.25;;;;;5.75;55.75;101101.47;4984450;28;45797;-86
2021/12/23 06:31:14;;;;;;;;;38.50;34.00;;;;;5.62;55.92;101067.31;5008326;27;45401;-86
2021/12/23 06:33:40;;;;;;;;;45.25;37.25;;;;;5.89;55.57;101099.41;4979769;28;45605;-86
2021/12/23 06:36:05;;;;;;;;;45.00;34.50;;;;;5.36;55.45;101012.25;4959809;28;48510;-87
2021/12/23 06:38:31;;;;;;;;;39.50;34.75;;;;;5.92;55.57;101100.25;4988292;28;45754;-87
2021/12/23 06:40:57;;;;;;;;;45.75;38.00;;;;;5.57;55.12;101044.47;4981991;28;45715;-86
2021/12/23 06:43:22;;;;;;;;;40.00;35.50;;;;;5.80;55.77;101071.38;4975918;28;45381;-86
2021/12/23 06:45:47;;;;;;;;;44.75;37.50;;;;;5.73;55.39;101056.50;5002974;28;48773;-86
2021/12/23 06:48:13;;;;;;;;;43.00;36.50;;;;;5.57;55.44;101031.25;4978793;28;45466;-87
2021/12/23 06:50:38;;;;;;;;;48.75;37.00;;;;;5.31;55.34;100977.09;4965876;28;45383;-86
2021/12/23 06:53:04;;;;;;;;;48.25;36.50;;;;;5.84;55.53;101061.63;4964985;28;45551;-85
2021/12/23 06:55:29;;;;;;;;;46.75;35.25;;;;;5.82;55.31;101060.75;4968806;28;45458;-86
2021/12/23 06:57:56;;;;;;;;;40.75;34.25;;;;;5.97;55.46;101071.09;4960061;28;45491;-87
2021/12/23 07:00:24;;;;;;;;;45.75;36.25;;;;;6.20;54.95;101098.88;4970815;28;45319;-88
2021/12/23 07:02:49;;;;;;;;;40.00;36.00;;;;;5.49;54.97;100989.09;4961152;28;45469;-87
2021/12/23 07:05:15;;;;;;;;;48.50;39.75;;;;;5.83;54.96;101036.03;4941226;28;47218;-86
2021/12/23 07:07:57;;;;;;;;;49.25;38.50;;;;;5.98;54.97;101061.38;4966506;28;45427;-86
2021/12/23 07:10:28;;;;;;;;;41.00;37.00;;;;;6.11;55.15;101095.50;4945022;28;45651;-85
2021/12/23 07:12:55;;;;;;;;;43.00;36.00;;;;;6.25;54.70;101112.88;4970448;28;45415;-85
2021/12/23 07:15:21;;;;;;;;;39.25;34.25;;;;;6.29;55.05;101109.28;4962571;28;45556;-83
2021/12/23 07:17:46;;;;;;;;;48.75;41.25;;;;;5.90;54.67;101043.00;4961895;28;45573;-83
2021/12/23 07:20:12;;;;;;;;;46.50;37.75;;;;;5.81;54.95;101030.81;4968215;28;45538;-86
2021/12/23 07:22:37;;;;;;;;;52.00;39.50;;;;;6.31;54.87;101110.97;4962932;28;45674;-86
2021/12/23 07:25:03;;;;;;;;;44.25;38.50;;;;;6.36;54.66;101112.66;4971585;28;46371;-86
2021/12/23 07:27:29;;;;;;;;;44.75;36.00;;;;;6.14;54.93;101084.00;4965876;28;45322;-84
2021/12/23 07:29:54;;;;;;;;;48.50;39.50;;;;;6.26;54.95;101104.91;4972227;28;45382;-85
2021/12/23 07:32:19;;;;;;;;;39.50;34.25;;;;;5.76;54.76;101016.81;4969914;28;45459;-85
2021/12/23 07:34:45;;;;;;;;;45.75;37.00;;;;;5.93;55.18;101048.22;4953734;28;47100;-85
2021/12/23 07:37:11;;;;;;;;;41.25;36.00;;;;;6.20;54.73;101094.44;4967051;28;45512;-85
2021/12/23 07:39:39;;;;;;;;;44.00;34.00;;;;;6.13;54.66;101077.84;4966242;28;45694;-85
2021/12/23 07:42:06;;;;;;;;;49.75;38.50;;;;;6.45;55.13;101131.00;4967698;28;45439;-84
2021/12/23 07:44:33;;;;;;;;;42.25;35.75;;;;;6.07;54.99;101070.00;4966760;28;46246;-84
2021/12/23 07:46:58;;;;;;;;;52.00;38.00;;;;;6.12;54.98;101070.78;4963725;28;45493;-85
2021/12/23 07:49:24;;;;;;;;;47.75;37.50;;;;;6.13;54.94;101058.41;4964414;28;45456;-85
2021/12/23 07:51:50;;;;;;;;;49.00;41.00;;;;;5.36;55.34;100929.44;4990833;28;45502;-86
2021/12/23 07:54:15;;;;;;;;;39.00;33.75;;;;;6.03;55.04;101025.13;4991174;27;47926;-84
2021/12/23 07:56:40;;;;;;;;;40.75;34.75;;;;;6.39;55.11;101078.19;4971351;28;45551;-85
2021/12/23 07:59:06;;;;;;;;;47.25;38.75;;;;;5.99;54.93;101002.25;4967839;28;45397;-85
2021/12/23 08:01:31;;;;;;;;;46.75;39.50;;;;;6.26;55.15;101036.09;4975546;27;45524;-85
2021/12/23 08:03:57;;;;;;;;;42.50;35.50;;;;;6.50;55.32;101081.47;4967362;28;45997;-86
2021/12/23 08:06:22;;;;;;;;;32.50;29.00;;;;;6.47;55.22;101066.53;4959016;28;45389;-84
2021/12/23 08:08:47;;;;;;;;;44.00;34.50;;;;;6.58;55.19;101091.88;4963275;28;45358;-84
2021/12/23 08:11:13;;;;;;;;;51.50;38.50;;;;;6.32;55.32;101040.38;4952578;28;45554;-85
2021/12/23 08:13:38;;;;;;;;;44.00;36.00;;;;;6.62;55.29;101091.78;4968802;28;45455;-84
2021/12/23 08:16:04;;;;;;;;;43.75;36.00;;;;;6.60;54.95;101074.19;4947501;28;45576;-85
2021/12/23 08:18:30;;;;;;;;;47.00;38.00;;;;;6.10;55.31;100987.91;4966711;28;45337;-84
2021/12/23 08:20:57;;;;;;;;;48.75;37.00;;;;;6.74;55.13;101086.25;4974278;28;45657;-86
2021/12/23 08:23:22;;;;;;;;;41.00;34.50;;;;;6.62;54.91;101065.31;4954352;28;47467;-84
2021/12/23 08:25:48;;;;;;;;;56.00;45.25;;;;;6.60;54.99;101059.16;4979099;28;45469;-86
2021/12/23 08:28:14;;;;;;;;;57.00;44.25;;;;;6.54;55.25;101043.44;5002163;28;45508;-84
2021/12/23 08:30:40;;;;;;;;;52.50;39.75;;;;;6.97;55.01;101104.25;4972515;28;45545;-83
2021/12/23 08:33:06;;;;;;;;;56.00;43.25;;;;;6.78;55.18;101060.53;4971538;28;45526;-84
2021/12/23 08:35:32;;;;;;;;;50.00;39.00;;;;;7.04;54.98;101098.81;4973308;28;45339;-87
2021/12/23 08:37:58;;;;;;;;;49.00;40.25;;;;;7.06;55.19;101100.53;4977834;28;45367;-83
2021/12/23 08:40:26;;;;;;;;;51.75;40.00;;;;;7.08;55.43;101103.16;4969911;28;45388;-85
2021/12/23 08:42:52;;;;;;;;;41.75;31.75;;;;;7.10;55.03;101110.16;4975847;28;45901;-85
2021/12/23 08:45:18;;;;;;;;;42.75;37.75;;;;;7.16;55.33;101101.16;4980026;28;45677;-84
2021/12/23 08:47:45;;;;;;;;;39.75;35.25;;;;;6.84;55.49;101028.63;4968046;28;45484;-85
2021/12/23 08:50:11;;;;;;;;;48.50;38.25;;;;;6.86;55.19;101029.47;4965659;28;45189;-85
2021/12/23 08:52:37;;;;;;;;;43.25;38.00;;;;;7.14;55.19;101057.91;4956912;28;47279;-84
2021/12/23 08:55:06;;;;;;;;;47.25;39.50;;;;;6.99;55.29;101032.66;4960634;28;45544;-83
2021/12/23 08:57:32;;;;;;;;;46.50;40.00;;;;;7.36;54.98;101084.78;4975932;28;45419;-86
2021/12/23 08:59:57;;;;;;;;;50.00;38.00;;;;;7.03;55.44;101017.59;4970961;28;45407;-84
2021/12/23 09:02:23;;;;;;;;;35.50;34.00;;;;;7.21;55.19;101048.03;4962626;28;46330;-85
2021/12/23 09:04:48;;;;;;;;;37.00;34.25;;;;;7.48;55.56;101094.22;4970017;28;45412;-85
2021/12/23 09:07:14;;;;;;;;;37.25;33.00;;;;;7.05;55.49;101024.59;4964084;28;45431;-84
2021/12/23 09:09:39;;;;;;;;;37.25;33.00;;;;;7.00;55.81;101007.94;4966112;28;45628;-83
2021/12/23 09:12:07;;;;;;;;;36.75;32.50;;;;;7.30;56.11;101061.94;4961522;28;45431;-83
2021/12/23 09:14:33;;;;;;;;;34.50;31.75;;;;;7.34;56.07;101062.75;4960070;28;45276;-84
2021/12/23 09:16:59;;;;;;;;;40.75;35.25;;;;;7.02;56.45;100998.13;4971353;28;45464;-83
2021/12/23 09:19:24;;;;;;;;;35.00;29.25;;;;;7.02;56.24;101008.75;4963140;28;45421;-84
2021/12/23 09:21:50;;;;;;;;;36.50;31.25;;;;;7.59;56.62;101090.38;4964671;28;46209;-84
2021/12/23 09:24:18;;;;;;;;;36.50;29.25;;;;;7.25;56.54;101026.72;4970793;28;45537;-84
2021/12/23 09:26:51;;;;;;;;;36.50;30.50;;;;;7.19;56.95;101008.34;4972930;28;45432;-84
2021/12/23 09:34:53;;;;;;;;;37.75;34.00;;;;;7.32;57.11;101028.31;4946282;28;45411;-84
2021/12/23 09:37:19;;;;;;;;;37.00;32.25;;;;;6.64;57.52;100906.38;4949213;28;45448;-84
2021/12/23 09:39:45;;;;;;;;;39.50;32.25;;;;;7.77;57.00;101083.72;4949899;28;45556;-84
2021/12/23 09:42:13;;;;;;;;;37.75;33.50;;;;;7.37;57.33;101018.47;4949765;28;47146;-85
2021/12/23 09:44:40;;;;;;;;;37.50;34.00;;;;;7.49;57.25;101029.66;4939786;28;45483;-85
2021/12/23 09:47:06;;;;;;;;;41.25;32.50;;;;;7.80;57.40;101081.00;4953550;28;45227;-85
2021/12/23 09:49:32;;;;;;;;;32.50;31.75;;;;;7.62;57.81;101057.59;4947729;28;45422;-85
2021/12/23 09:52:03;;;;;;;;;39.50;33.50;;;;;7.88;57.41;101074.59;4941567;28;45926;-82
2021/12/23 09:54:31;;;;;;;;;35.50;32.75;;;;;7.09;58.21;100938.75;4932604;28;45482;-84
2021/12/23 09:56:56;;;;;;;;;39.50;32.00;;;;;7.88;57.95;101059.53;4950710;28;45448;-85
2021/12/23 09:59:26;;;;;;;;;35.25;29.25;;;;;7.91;58.17;101070.06;4942949;28;45440;-84
2021/12/23 10:01:52;;;;;;;;;34.50;31.50;;;;;7.82;58.44;101036.72;4943460;28;45628;-83
2021/12/23 10:04:18;;;;;;;;;43.50;33.00;;;;;7.77;58.63;101019.16;4938578;28;45591;-85
2021/12/23 10:06:43;;;;;;;;;34.25;32.75;;;;;8.12;58.18;101067.72;4938092;28;46121;-85
2021/12/23 10:09:09;;;;;;;;;33.50;32.00;;;;;7.77;58.43;101003.25;4959648;28;45504;-84
2021/12/23 10:37:15;;;;;;;;;36.25;31.25;;;;;7.90;60.30;100924.16;4908708;28;45556;-84
2021/12/23 10:39:43;;;;;;;;;36.67;31.67;;;;;7.87;60.17;100911.00;4905440;28;45674;-84
2021/12/23 10:42:18;;;;;;;;;32.00;29.00;;;;;8.48;60.31;101001.22;4901835;28;45564;-84
2021/12/23 10:45:00;;;;;;;;;32.50;28.75;;;;;8.08;60.23;100918.31;4909622;28;45799;-85
2021/12/23 10:47:33;;;;;;;;;40.50;34.00;;;;;8.19;60.64;100920.63;4904442;28;45593;-85
2021/12/23 10:50:35;;;;;;;;;33.67;25.33;;;;;8.78;60.93;101017.97;4904112;28;45547;-84
2021/12/23 10:53:08;;;;;;;;;27.67;23.67;;;;;8.11;60.93;100906.72;4904261;28;45514;-85
2021/12/23 10:58:18;;;;;;;;;31.33;29.67;;;;;8.36;61.66;100944.88;4936417;28;45592;-85
2021/12/23 11:00:54;;;;;;;;;34.67;30.00;;;;;7.96;61.28;100845.22;4909408;28;45521;-85
2021/12/23 11:03:50;;;;;;;;;29.00;28.33;;;;;7.59;61.89;100781.84;4933289;28;45451;-85
2021/12/23 11:08:51;;;;;;;;;37.00;31.67;;;;;9.04;61.47;100993.22;4928385;28;45547;-86
2021/12/23 11:43:57;;;;;;;;;33.00;28.33;;;;;8.80;62.49;100831.00;4971218;28;45379;-85
2021/12/23 11:46:28;;;;;;;;;33.33;27.67;;;;;9.27;62.58;100894.91;4965146;28;45513;-85
2021/12/23 11:48:56;;;;;;;;;33.00;27.33;;;;;8.79;62.67;100813.28;4948739;28;47083;-85
2021/12/23 11:54:29;;;;;;;;;27.33;26.00;;;;;9.75;62.78;100938.38;4987115;28;45427;-85
2021/12/23 11:57:02;;;;;;;;;29.67;26.67;;;;;9.33;62.34;100867.19;4965807;27;45180;-85
2021/12/23 11:59:28;;;;;;;;;28.00;26.67;;;;;9.20;62.55;100828.66;4965891;28;47225;-85
2021/12/23 12:01:55;;;;;;;;;27.67;23.00;;;;;9.64;62.30;100890.00;4962435;28;45489;-84
2021/12/23 12:04:32;;;;;;;;;28.33;24.33;;;;;10.10;62.76;100960.16;4967187;28;45414;-85
2021/12/23 12:06:58;;;;;;;;;26.33;26.33;;;;;9.79;62.18;100900.09;4965276;28;45441;-83
2021/12/23 12:09:27;;;;;;;;;34.67;31.67;;;;;9.28;61.95;100813.31;4969550;28;45597;-85
2021/12/23 12:11:58;;;;;;;;;32.00;28.33;;;;;10.19;62.59;100948.28;4964222;28;45927;-85
2021/12/23 12:14:40;;;;;;;;;31.00;26.00;;;;;9.07;61.92;100761.78;4968816;28;45540;-85
2021/12/23 12:17:26;;;;;;;;;22.33;22.33;;;;;10.25;62.45;100932.03;4965908;28;45624;-85
2021/12/23 12:20:13;;;;;;;;;32.00;27.67;;;;;10.32;62.73;100929.13;4959923;28;46204;-85
2021/12/23 12:23:01;;;;;;;;;30.33;27.00;;;;;10.41;62.66;100927.00;4965479;28;46179;-85
2021/12/23 12:25:28;;;;;;;;;35.00;30.00;;;;;10.51;62.84;100923.03;4959210;28;45603;-85
2021/12/23 12:27:56;;;;;;;;;33.00;26.00;;;;;10.57;63.00;100921.00;4963223;28;45833;-86
2021/12/23 12:30:44;;;;;;;;;29.67;26.67;;;;;10.63;62.92;100919.00;4963413;28;46021;-84
2021/12/23 12:33:12;;;;;;;;;28.67;27.00;;;;;9.87;62.73;100772.84;4963639;28;45602;-85
2021/12/23 12:35:39;;;;;;;;;27.67;27.67;;;;;10.20;62.97;100816.81;4963343;28;45351;-85
2021/12/23 12:38:17;;;;;;;;;30.67;25.33;;;;;10.73;62.47;100899.91;4966685;28;45528;-85
2021/12/23 12:41:08;;;;;;;;;28.00;26.67;;;;;10.73;62.69;100888.38;4959703;28;45485;-85